createdAt,value
2022-10-20T00:03:45.142Z,12.90
2022-10-20T00:08:46.906Z,12.81
2022-10-20T00:13:50.722Z,12.73
2022-10-20T00:18:52.289Z,12.58
2022-10-20T00:23:53.762Z,12.54
2022-10-20T00:28:56.301Z,12.40
2022-10-20T00:33:57.848Z,12.26
2022-10-20T00:39:01.261Z,12.18
2022-10-20T00:44:41.569Z,12.08
2022-10-20T00:49:43.622Z,12.03
2022-10-20T00:54:45.199Z,11.96
2022-10-20T00:59:46.719Z,12.02
2022-10-20T01:04:49.010Z,11.92
2022-10-20T01:09:50.720Z,11.78
2022-10-20T01:15:14.061Z,11.67
2022-10-20T01:20:43.207Z,11.79
2022-10-20T01:25:59.863Z,11.81
2022-10-20T01:31:09.400Z,11.74
2022-10-20T01:36:19.693Z,11.55
2022-10-20T01:41:40.659Z,11.50
2022-10-20T01:46:43.318Z,11.49
2022-10-20T01:51:44.828Z,11.30
2022-10-20T01:56:52.477Z,11.51
2022-10-20T02:02:24.798Z,11.59
2022-10-20T02:07:31.104Z,11.62
2022-10-20T02:12:37.812Z,11.64
2022-10-20T02:17:41.959Z,11.57
2022-10-20T02:22:44.820Z,11.43
2022-10-20T02:27:47.901Z,11.31
2022-10-20T02:32:52.381Z,11.25
2022-10-20T02:37:54.485Z,11.09
2022-10-20T02:42:55.940Z,10.98
2022-10-20T02:47:57.505Z,11.10
2022-10-20T02:52:58.974Z,11.11
2022-10-20T02:58:00.425Z,11.08
2022-10-20T03:03:01.878Z,10.99
2022-10-20T03:08:03.329Z,10.97
2022-10-20T03:13:06.385Z,10.99
2022-10-20T03:18:07.919Z,10.88
2022-10-20T03:23:09.469Z,11.12
2022-10-20T03:28:11.211Z,10.83
2022-10-20T03:33:12.655Z,11.01
2022-10-20T03:38:14.299Z,10.77
2022-10-20T03:43:15.883Z,10.91
2022-10-20T03:48:17.303Z,10.88
2022-10-20T03:53:18.791Z,10.90
2022-10-20T03:58:20.232Z,11.05
2022-10-20T04:03:21.631Z,10.75
2022-10-20T04:08:23.122Z,10.92
2022-10-20T04:13:24.573Z,10.86
2022-10-20T04:18:25.997Z,10.97
2022-10-20T04:23:27.458Z,10.78
2022-10-20T04:28:29.346Z,10.88
2022-10-20T04:33:31.019Z,10.95
2022-10-20T04:38:33.881Z,10.85
2022-10-20T04:43:35.300Z,10.93
2022-10-20T04:48:37.563Z,11.02
2022-10-20T04:53:39.045Z,11.10
2022-10-20T04:58:40.832Z,10.92
2022-10-20T05:03:42.235Z,11.07
2022-10-20T05:08:46.162Z,10.99
2022-10-20T05:13:47.730Z,11.07
2022-10-20T05:18:49.674Z,10.99
2022-10-20T05:23:56.157Z,11.13
2022-10-20T05:28:57.731Z,11.19
2022-10-20T05:33:59.169Z,11.42
2022-10-20T05:39:00.641Z,11.43
2022-10-20T05:44:05.000Z,11.18
2022-10-20T05:49:07.253Z,11.15
2022-10-20T05:54:11.303Z,11.25
2022-10-20T05:59:13.610Z,11.31
2022-10-20T06:04:17.213Z,11.38
2022-10-20T06:09:18.836Z,11.27
2022-10-20T06:14:20.750Z,11.33
2022-10-20T06:19:23.632Z,11.47
2022-10-20T06:24:25.155Z,11.61
2022-10-20T06:29:26.615Z,11.69
2022-10-20T06:34:28.132Z,11.77
2022-10-20T06:39:29.551Z,11.80
2022-10-20T06:44:31.111Z,11.88
2022-10-20T06:49:32.542Z,11.67
2022-10-20T06:54:33.949Z,11.78
2022-10-20T06:59:35.377Z,11.88
2022-10-20T07:04:36.856Z,11.92
2022-10-20T07:09:38.403Z,12.01
2022-10-20T07:14:39.883Z,11.98
2022-10-20T07:19:41.301Z,11.86
2022-10-20T07:24:42.779Z,12.28
2022-10-20T07:29:44.276Z,12.37
2022-10-20T07:34:45.823Z,12.52
2022-10-20T07:39:47.243Z,12.58
2022-10-20T07:44:48.684Z,12.58
2022-10-20T07:49:50.117Z,12.47
2022-10-20T07:54:58.027Z,12.58
2022-10-20T08:00:08.491Z,12.51
2022-10-20T08:05:10.160Z,12.70
2022-10-20T08:10:12.254Z,12.66
2022-10-20T08:15:13.723Z,12.73
2022-10-20T08:20:15.329Z,12.76
2022-10-20T10:20:15.086Z,12.95
2022-10-20T10:25:27.459Z,13.31
2022-10-20T10:30:31.897Z,13.25
2022-10-20T10:35:40.273Z,13.31
2022-10-20T10:40:56.602Z,13.07
2022-10-20T10:46:19.604Z,13.24
2022-10-20T10:51:39.853Z,13.22
2022-10-20T10:56:46.225Z,13.61
2022-10-20T11:02:09.495Z,13.64
2022-10-20T11:07:48.055Z,13.74
2022-10-20T11:13:11.521Z,13.56
2022-10-20T11:18:41.553Z,13.58
2022-10-20T11:24:02.390Z,13.48
2022-10-20T11:29:09.860Z,13.59
2022-10-20T11:34:46.530Z,13.64
2022-10-20T11:39:57.230Z,13.71
2022-10-20T11:45:01.289Z,13.53
2022-10-20T11:50:11.710Z,13.52
2022-10-20T11:55:41.237Z,13.47
2022-10-20T12:01:13.734Z,13.40
2022-10-20T12:06:26.126Z,13.74
2022-10-20T12:11:35.168Z,13.78
2022-10-20T12:16:51.940Z,13.82
2022-10-20T12:22:06.921Z,13.63
2022-10-20T12:27:08.296Z,13.47
2022-10-20T12:32:22.008Z,13.62
2022-10-20T12:37:36.413Z,13.44
2022-10-20T12:42:46.175Z,13.40
2022-10-20T12:47:50.967Z,13.38
2022-10-20T12:52:52.635Z,13.80
2022-10-20T12:58:31.295Z,13.91
2022-10-20T13:03:45.856Z,13.95
2022-10-20T13:09:09.958Z,13.85
2022-10-20T13:14:35.720Z,13.98
2022-10-20T13:19:48.127Z,13.98
2022-10-20T13:24:51.648Z,13.95
2022-10-20T13:29:54.105Z,13.93
2022-10-20T13:35:16.197Z,14.05
2022-10-20T13:40:42.219Z,14.06
2022-10-20T13:45:49.411Z,13.91
2022-10-20T13:50:58.459Z,14.08
2022-10-20T13:56:03.004Z,14.12
2022-10-20T14:01:14.863Z,14.08
2022-10-20T14:06:37.849Z,13.84
2022-10-20T14:11:40.680Z,13.68
2022-10-20T14:17:07.197Z,13.87
2022-10-20T14:22:19.686Z,13.72
2022-10-20T14:27:30.594Z,13.91
2022-10-20T14:32:35.473Z,13.87
2022-10-20T14:37:44.630Z,13.81
2022-10-20T14:42:46.337Z,13.83
2022-10-20T14:47:49.187Z,13.80
2022-10-20T14:52:53.949Z,13.84
2022-10-20T14:57:55.855Z,13.68
2022-10-20T15:02:59.262Z,13.78
2022-10-20T15:08:26.319Z,13.76
2022-10-20T15:13:33.568Z,13.70
2022-10-20T15:18:39.286Z,13.75
2022-10-20T15:23:41.406Z,13.78
2022-10-20T15:28:47.940Z,13.58
2022-10-20T15:33:50.273Z,13.86
2022-10-20T15:38:51.805Z,13.84
2022-10-20T15:43:54.101Z,13.90
2022-10-20T15:48:55.630Z,13.75
2022-10-20T15:53:57.807Z,13.46
2022-10-20T15:58:59.338Z,13.44
2022-10-20T16:04:03.015Z,13.68
2022-10-20T16:09:04.591Z,13.68
2022-10-20T16:14:06.146Z,13.62
2022-10-20T16:19:08.032Z,13.76
2022-10-20T16:24:09.471Z,13.75
2022-10-20T16:29:11.091Z,13.41
2022-10-20T16:34:12.528Z,13.77
2022-10-20T16:39:13.969Z,13.68
2022-10-20T16:44:15.407Z,13.53
2022-10-20T16:49:16.932Z,13.54
2022-10-20T16:54:18.751Z,13.70
2022-10-20T16:59:20.442Z,13.58
2022-10-20T17:04:21.978Z,13.78
2022-10-20T17:09:23.437Z,13.76
2022-10-20T17:14:24.960Z,13.63
2022-10-20T17:19:26.779Z,13.23
2022-10-20T17:24:28.338Z,13.43
2022-10-20T17:29:29.770Z,13.72
2022-10-20T17:34:31.924Z,13.69
2022-10-20T17:39:33.440Z,13.60
2022-10-20T17:44:34.951Z,13.56
2022-10-20T17:49:36.418Z,13.69
2022-10-20T17:54:37.854Z,13.56
2022-10-20T17:59:52.151Z,13.64
2022-10-20T18:04:55.675Z,13.52
2022-10-20T18:09:57.086Z,13.73
2022-10-20T18:14:58.510Z,13.60
2022-10-20T18:20:00.035Z,13.44
2022-10-20T18:25:04.911Z,13.66
2022-10-20T18:30:07.234Z,13.71
2022-10-20T18:35:09.273Z,13.72
2022-10-20T18:40:11.153Z,13.79
2022-10-20T18:45:12.623Z,13.83
2022-10-20T18:50:14.053Z,13.79
2022-10-20T18:55:15.532Z,13.72
2022-10-20T19:00:17.181Z,13.66
2022-10-20T19:05:18.658Z,13.86
2022-10-20T19:10:20.061Z,13.87
2022-10-20T19:15:21.482Z,13.92
2022-10-20T19:20:22.941Z,13.92
2022-10-20T19:25:24.480Z,13.92
2022-10-20T19:30:26.240Z,13.89
2022-10-20T19:35:27.772Z,13.88
2022-10-20T19:40:29.206Z,13.92
2022-10-20T19:45:30.636Z,13.86
2022-10-20T19:50:33.829Z,13.54
2022-10-20T19:55:35.258Z,13.69
2022-10-20T20:00:36.834Z,13.79
2022-10-20T20:05:38.516Z,13.93
2022-10-20T20:10:39.954Z,13.84
2022-10-20T20:15:41.370Z,13.94
2022-10-20T20:20:44.813Z,13.91
2022-10-20T20:25:46.330Z,13.67
2022-10-20T20:31:05.747Z,13.84
2022-10-20T20:36:08.628Z,13.63
2022-10-20T20:41:16.142Z,13.93
2022-10-20T20:46:19.387Z,14.00
2022-10-20T20:51:21.403Z,14.04
2022-10-20T20:56:23.399Z,13.98
2022-10-20T21:01:29.929Z,14.03
2022-10-20T21:06:49.546Z,14.04
2022-10-20T21:11:53.856Z,13.91
2022-10-20T21:16:55.954Z,13.98
2022-10-20T21:21:57.495Z,13.98
2022-10-20T21:26:59.033Z,13.92
2022-10-20T21:32:00.575Z,14.00
2022-10-20T21:37:02.012Z,13.66
2022-10-20T21:42:03.850Z,13.96
2022-10-20T21:47:05.253Z,14.04
2022-10-20T21:52:06.687Z,14.21
2022-10-20T21:57:08.172Z,14.12
2022-10-20T22:02:09.597Z,14.23
2022-10-20T22:07:11.115Z,14.05
2022-10-20T22:12:12.505Z,14.15
2022-10-20T22:17:13.983Z,13.93
2022-10-20T22:22:15.416Z,14.14
2022-10-20T22:27:31.238Z,14.08
2022-10-20T22:32:38.441Z,14.17
2022-10-20T22:37:40.180Z,14.06
2022-10-20T22:42:41.850Z,14.18
2022-10-20T22:47:43.497Z,14.15
2022-10-20T22:52:45.110Z,14.19
2022-10-20T22:57:48.211Z,14.14
2022-10-20T23:02:49.761Z,14.03
2022-10-20T23:07:51.198Z,14.00
2022-10-20T23:12:52.642Z,14.12
2022-10-20T23:17:54.068Z,13.85
2022-10-20T23:22:55.539Z,13.88
2022-10-20T23:27:56.965Z,13.85
2022-10-20T23:32:58.472Z,13.80
2022-10-20T23:37:59.912Z,13.78
2022-10-20T23:43:01.391Z,14.10
2022-10-20T23:48:02.840Z,14.15
2022-10-20T23:53:04.308Z,14.15
2022-10-20T23:58:05.726Z,14.01
